トロント/ピアソン の空港の天気 - METARとTAF

トロント・ピアソン国際空港 ( CYYZ / YYZ ) - カナダ オンタリオ州トロント
飛行場実況気象(Metar)
観測時間09/16 10:46 EDT (09/16 14:46 UTC)
風向・風速東南東 4m/s 瞬間風速9m/s
視程10km以上
天気現象
全天の4割程度の雲 雲底高度 430m
全天の8割程度の雲 雲底高度 610m
全天の8割程度の雲 雲底高度 2130m
気温18℃
湿度83%
気圧1020hPa
METARCYYZ 161446Z 11007G18KT 15SM SCT014 BKN020 BKN070 18/15 A3012 RMK SC4SC1AC2 SLP200 DENSITY ALT 800FT
過去の天気等 Google飛行場航空写真 Wunderground天気予報

過去48時間のMETAR

飛行場予報(TAF)
発表時間: 9/16 10:38 EDT (9/16 14:38 UTC)
予報対象時間: 16日11時 EDT ~ 17日14時 EDT
風向・風速北東 6m/s
視程10km以上
全天の8割程度の雲 雲底高度 610m
全天を覆う雲 雲底高度 1220m
16日11時 EDT ~ 16日16時 EDT に一時的に
全天の4割程度の雲 雲底高度 460m
全天の8割程度の雲 雲底高度 1220m
16日16時 EDT から
風向・風速東 3m/s
視程10km以上
少しの雲 雲底高度 760m
16日23時 EDT ~ 17日1時 EDT に徐々に
風向・風速北 3m/s
TAF CYYZ 161438Z 1615/1718 05012KT P6SM BKN020 OVC040
TEMPO 1615/1620 SCT015 BKN040
FM162000 09006KT P6SM FEW025
BECMG 1703/1705 35006KT RMK NXT FCST BY 161800Z